X  Zamknij Lotniskowe dane METAR     EPPO Poznań-Ławica Airport
Temperatura
14°C Temperatura
13°C Punkt rosy
94% Wilgotność



Wiatr
8 KM/H
5 MPH
2 M/S
4 KTS



340°
NNW
Warunki bieżące

Bezchurnie Bezchurnie
Ciśnienie 1002.92 (hPa) - 29.62 (inHg)
Widoczność 6.2 (mil) - 10 (km)
Lotnisko
Kod lotniska EPPO

Położenie: Poznań-Ławica Airport
Odległość: 98 (km)

Metar:
EPPO 122330Z 34004KT CAVOK 14/13 Q1003

Czas: 13-05-2021 01:30 CEST